createdAt,value
2018-01-12T00:00:04.388Z,45.70
2018-01-12T00:01:04.255Z,47.40
2018-01-12T00:02:04.293Z,48.20
2018-01-12T00:03:04.203Z,45.60
2018-01-12T00:04:04.205Z,46.90
2018-01-12T00:05:04.147Z,49.20
2018-01-12T00:06:04.218Z,52.30
2018-01-12T00:07:04.098Z,51.40
2018-01-12T00:08:04.128Z,50.40
2018-01-12T00:09:04.038Z,49.50
2018-01-12T00:10:04.037Z,49.40
2018-01-12T00:11:03.984Z,52.60
2018-01-12T00:12:04.051Z,52.60
2018-01-12T00:13:03.929Z,57.60
2018-01-12T00:14:03.967Z,56.90
2018-01-12T00:15:03.875Z,60.60
2018-01-12T00:16:03.870Z,59.60
2018-01-12T00:17:03.821Z,57.80
2018-01-12T00:18:03.883Z,60.50
2018-01-12T00:19:03.766Z,62.60
2018-01-12T00:20:03.805Z,59.20
2018-01-12T00:21:03.713Z,65.60
2018-01-12T00:22:03.704Z,68.00
2018-01-12T00:23:03.657Z,68.70
2018-01-12T00:24:03.715Z,71.50
2018-01-12T00:25:03.606Z,68.70
2018-01-12T00:26:03.624Z,68.70
2018-01-12T00:27:03.548Z,75.40
2018-01-12T00:28:03.534Z,74.10
2018-01-12T00:29:03.493Z,77.10
2018-01-12T00:30:03.548Z,83.50
2018-01-12T00:31:03.439Z,84.70
2018-01-12T00:32:03.460Z,89.30
2018-01-12T00:33:03.385Z,85.90
2018-01-12T00:34:03.470Z,87.10
2018-01-12T00:35:03.332Z,81.80
2018-01-12T00:36:03.382Z,82.70
2018-01-12T00:37:03.278Z,81.80
2018-01-12T00:38:03.288Z,80.70
2018-01-12T00:39:03.221Z,87.30
2018-01-12T00:40:03.304Z,83.90
2018-01-12T00:41:03.164Z,81.40
2018-01-12T00:42:03.212Z,92.20
2018-01-12T00:43:03.119Z,88.80
2018-01-12T00:44:03.124Z,85.90
2018-01-12T00:45:03.057Z,86.80
2018-01-12T00:46:03.138Z,87.40
2018-01-12T00:47:03.000Z,92.10
2018-01-12T00:48:03.045Z,84.80
2018-01-12T00:49:02.944Z,97.00
2018-01-12T00:50:02.956Z,97.90
2018-01-12T00:51:02.891Z,90.70
2018-01-12T00:52:02.970Z,107.20
2018-01-12T00:53:02.836Z,105.20
2018-01-12T00:54:02.877Z,99.70
2018-01-12T00:55:02.782Z,93.80
2018-01-12T00:56:02.787Z,92.10
2018-01-12T00:57:02.729Z,91.80
2018-01-12T00:58:02.801Z,83.00
2018-01-12T00:59:02.672Z,82.70
2018-01-12T01:00:02.709Z,85.80
2018-01-12T01:01:02.616Z,88.00
2018-01-12T01:02:02.622Z,84.70
2018-01-12T01:03:02.562Z,86.00
2018-01-12T01:04:02.634Z,85.70
2018-01-12T01:05:02.508Z,82.90
2018-01-12T01:06:02.542Z,87.10
2018-01-12T01:07:02.454Z,82.90
2018-01-12T01:08:02.451Z,83.10
2018-01-12T01:09:02.397Z,83.50
2018-01-12T01:10:02.470Z,108.40
2018-01-12T01:11:02.344Z,88.80
2018-01-12T01:12:02.377Z,95.50
2018-01-12T01:13:02.288Z,87.30
2018-01-12T01:14:02.286Z,79.20
2018-01-12T01:15:02.244Z,125.80
2018-01-12T01:16:02.301Z,100.40
2018-01-12T01:17:02.174Z,95.60
2018-01-12T01:18:02.211Z,102.20
2018-01-12T01:19:02.123Z,94.10
2018-01-12T01:20:03.146Z,97.50
2018-01-12T01:21:02.069Z,92.50
2018-01-12T01:22:02.133Z,83.30
2018-01-12T01:23:02.012Z,98.70
2018-01-12T01:24:02.044Z,96.30
2018-01-12T01:25:01.961Z,98.20
2018-01-12T01:26:01.949Z,94.00
2018-01-12T01:27:01.900Z,94.20
2018-01-12T01:28:01.963Z,90.40
2018-01-12T01:29:01.845Z,86.60
2018-01-12T01:30:01.874Z,85.80
2018-01-12T01:31:01.792Z,87.60
2018-01-12T01:32:01.784Z,97.70
2018-01-12T01:33:01.737Z,96.30
2018-01-12T01:34:01.797Z,88.60
2018-01-12T01:35:01.681Z,91.30
2018-01-12T01:36:01.706Z,101.70
2018-01-12T01:37:01.625Z,101.10
2018-01-12T01:38:01.618Z,92.40
2018-01-12T01:39:01.570Z,95.90
2018-01-12T01:40:01.629Z,99.40
2018-01-12T01:41:01.517Z,91.50
2018-01-12T01:42:01.540Z,96.00
2018-01-12T01:43:01.461Z,90.00
2018-01-12T01:44:01.448Z,105.30
2018-01-12T01:45:01.408Z,93.90
2018-01-12T01:46:01.463Z,98.40
2018-01-12T01:47:01.350Z,93.00
2018-01-12T01:48:01.371Z,84.30
2018-01-12T01:49:01.297Z,82.90
2018-01-12T01:50:01.283Z,77.90
2018-01-12T01:51:01.241Z,85.30
2018-01-12T01:52:01.293Z,79.00
2018-01-12T01:53:01.186Z,78.00
2018-01-12T01:54:01.204Z,86.60
2018-01-12T01:55:01.131Z,78.60
2018-01-12T01:56:01.220Z,82.30
2018-01-12T01:57:01.074Z,72.80
2018-01-12T01:58:01.130Z,67.70
2018-01-12T01:59:01.022Z,72.90
2018-01-12T02:00:01.037Z,65.60
2018-01-12T02:01:00.967Z,66.60
2018-01-12T02:02:01.047Z,63.90
2018-01-12T02:03:00.908Z,65.70
2018-01-12T02:04:00.963Z,63.70
2018-01-12T02:05:00.852Z,61.20
2018-01-12T02:06:00.870Z,59.80
2018-01-12T02:07:00.800Z,60.60
2018-01-12T02:08:00.984Z,59.40
2018-01-12T02:09:00.741Z,53.50
2018-01-12T02:10:00.897Z,54.80
2018-01-12T02:11:00.686Z,57.80
2018-01-12T02:12:00.663Z,56.40
2018-01-12T02:13:00.633Z,55.20
2018-01-12T02:14:00.825Z,54.50
2018-01-12T02:15:00.575Z,53.90
2018-01-12T02:16:00.625Z,54.30
2018-01-12T02:17:00.521Z,54.60
2018-01-12T02:18:00.544Z,51.60
2018-01-12T02:19:00.465Z,54.30
2018-01-12T02:20:00.557Z,53.40
2018-01-12T02:21:00.408Z,54.00
2018-01-12T02:22:00.470Z,52.20
2018-01-12T02:23:00.355Z,51.10
2018-01-12T02:24:00.379Z,53.10
2018-01-12T02:25:00.305Z,49.10
2018-01-12T02:26:00.395Z,53.60
2018-01-12T02:27:00.244Z,54.00
2018-01-12T02:28:00.305Z,52.30
2018-01-12T02:29:00.185Z,51.00
2018-01-12T02:30:00.215Z,54.30
2018-01-12T02:31:00.134Z,52.80
2018-01-12T02:32:00.229Z,49.70
2018-01-12T02:33:00.078Z,53.60
2018-01-12T02:34:00.142Z,50.30
2018-01-12T02:35:00.027Z,49.10
2018-01-12T02:36:00.054Z,51.00
2018-01-12T02:36:59.967Z,49.00
2018-01-12T02:38:00.068Z,49.40
2018-01-12T02:38:59.910Z,47.10
2018-01-12T02:39:59.978Z,50.00
2018-01-12T02:40:59.854Z,49.80
2018-01-12T02:41:59.891Z,49.80
2018-01-12T02:42:59.800Z,52.20
2018-01-12T02:43:59.905Z,52.80
2018-01-12T02:44:59.748Z,52.40
2018-01-12T02:45:59.816Z,50.90
2018-01-12T02:46:59.686Z,50.50
2018-01-12T02:47:59.758Z,52.20
2018-01-12T02:48:59.634Z,53.00
2018-01-12T02:49:59.742Z,52.60
2018-01-12T02:50:59.578Z,52.70
2018-01-12T02:51:59.653Z,55.20
2018-01-12T02:52:59.523Z,53.80
2018-01-12T02:53:59.564Z,50.50
2018-01-12T02:54:59.467Z,50.90
2018-01-12T02:55:59.577Z,52.20
2018-01-12T02:56:59.424Z,52.20
2018-01-12T02:57:59.489Z,53.40
2018-01-12T02:58:59.357Z,51.60
2018-01-12T02:59:59.402Z,51.80
2018-01-12T03:00:59.300Z,52.90
2018-01-12T03:01:59.415Z,57.00
2018-01-12T03:02:59.246Z,56.20
2018-01-12T03:03:59.326Z,53.40
2018-01-12T03:04:59.192Z,56.30
2018-01-12T03:05:59.237Z,53.90
2018-01-12T03:06:59.133Z,55.50
2018-01-12T03:07:59.254Z,59.30
2018-01-12T03:08:59.080Z,57.60
2018-01-12T03:09:59.165Z,55.10
2018-01-12T03:10:59.024Z,60.70
2018-01-12T03:11:59.075Z,52.30
2018-01-12T03:12:58.968Z,52.90
2018-01-12T03:13:59.099Z,56.70
2018-01-12T03:14:58.913Z,56.60
2018-01-12T03:15:59.001Z,53.80
2018-01-12T03:16:58.856Z,53.40
2018-01-12T03:17:58.911Z,49.60
2018-01-12T03:18:58.801Z,51.80
2018-01-12T03:19:58.926Z,50.90
2018-01-12T03:20:58.745Z,53.00
2018-01-12T03:21:58.835Z,50.80
2018-01-12T03:22:58.689Z,53.00
2018-01-12T03:23:58.747Z,50.60
2018-01-12T03:24:58.632Z,50.20
2018-01-12T03:25:58.762Z,49.20
2018-01-12T03:26:58.577Z,50.30
2018-01-12T03:27:58.674Z,53.70
2018-01-12T03:28:58.523Z,50.50
2018-01-12T03:29:58.585Z,52.30
2018-01-12T03:30:58.469Z,52.10
2018-01-12T03:31:58.600Z,51.80
2018-01-12T03:32:58.413Z,50.40
2018-01-12T03:33:58.510Z,52.70
2018-01-12T03:34:58.356Z,51.60
2018-01-12T03:35:58.423Z,51.70
2018-01-12T03:36:58.300Z,49.70
2018-01-12T03:37:58.436Z,54.00
2018-01-12T03:38:58.247Z,54.10
2018-01-12T03:39:58.346Z,51.70
2018-01-12T03:40:58.187Z,51.80
2018-01-12T03:41:58.259Z,55.40
2018-01-12T03:42:58.134Z,54.20
2018-01-12T03:43:58.271Z,54.00
2018-01-12T03:44:58.088Z,53.20
2018-01-12T03:45:58.184Z,52.90
2018-01-12T03:46:58.023Z,55.80
2018-01-12T03:47:58.095Z,55.20
2018-01-12T03:48:57.967Z,53.30
2018-01-12T03:49:58.109Z,54.10
2018-01-12T03:50:57.912Z,50.10
2018-01-12T03:51:58.021Z,51.00
2018-01-12T03:52:57.858Z,53.40
2018-01-12T03:53:57.932Z,53.50
2018-01-12T03:54:57.800Z,52.30
2018-01-12T03:55:57.947Z,53.00
2018-01-12T03:56:57.745Z,54.60
2018-01-12T03:57:57.857Z,51.80
2018-01-12T03:58:57.689Z,52.40
2018-01-12T03:59:57.769Z,50.20
2018-01-12T04:00:57.634Z,53.30
2018-01-12T04:01:57.782Z,54.20
2018-01-12T04:02:57.582Z,56.80
2018-01-12T04:03:57.701Z,54.80
2018-01-12T04:04:57.521Z,53.80
2018-01-12T04:05:57.606Z,54.80
2018-01-12T04:06:57.472Z,52.50
2018-01-12T04:07:57.620Z,56.80
2018-01-12T04:08:57.413Z,52.40
2018-01-12T04:09:57.531Z,54.20
2018-01-12T04:10:57.366Z,56.00
2018-01-12T04:11:57.434Z,56.00
2018-01-12T04:12:57.302Z,59.00
2018-01-12T04:13:57.453Z,61.50
2018-01-12T04:14:57.247Z,53.70
2018-01-12T04:15:57.367Z,56.70
2018-01-12T04:16:57.192Z,58.00
2018-01-12T04:17:57.282Z,58.20
2018-01-12T04:18:57.138Z,57.50
2018-01-12T04:19:57.294Z,51.70
2018-01-12T04:20:57.081Z,56.40
2018-01-12T04:21:57.206Z,57.70
2018-01-12T04:22:57.026Z,54.80
2018-01-12T04:23:57.115Z,58.70
2018-01-12T04:24:56.969Z,60.60
2018-01-12T04:25:57.131Z,58.00
2018-01-12T04:26:56.915Z,56.30
2018-01-12T04:27:57.045Z,58.00
2018-01-12T04:28:56.861Z,55.90
2018-01-12T04:29:56.951Z,57.10
2018-01-12T04:30:56.806Z,62.90
2018-01-12T04:31:56.969Z,61.60
2018-01-12T04:32:56.748Z,59.30
2018-01-12T04:33:56.881Z,60.20
2018-01-12T04:34:56.693Z,57.60
2018-01-12T04:35:56.792Z,66.00
2018-01-12T04:36:56.636Z,68.10
2018-01-12T04:37:56.807Z,62.90
2018-01-12T04:38:56.583Z,63.20
2018-01-12T04:39:56.718Z,62.50
2018-01-12T04:40:56.528Z,63.60
2018-01-12T04:41:56.525Z,65.50
2018-01-12T04:42:56.472Z,64.50
2018-01-12T04:43:56.538Z,67.50
2018-01-12T04:44:56.420Z,64.90
2018-01-12T04:45:56.451Z,64.70
2018-01-12T04:46:56.361Z,65.30
2018-01-12T04:47:56.362Z,64.50
2018-01-12T04:48:56.310Z,66.90
2018-01-12T04:49:56.377Z,66.00
2018-01-12T04:50:56.250Z,65.70
2018-01-12T04:51:56.287Z,60.00
2018-01-12T04:52:56.198Z,64.30
2018-01-12T04:53:56.201Z,60.30
2018-01-12T04:54:56.141Z,66.30
2018-01-12T04:55:56.213Z,68.30
2018-01-12T04:56:56.084Z,62.00
2018-01-12T04:57:56.130Z,67.10
2018-01-12T04:58:56.030Z,62.90
2018-01-12T04:59:56.036Z,59.60
2018-01-12T05:00:55.971Z,65.90
2018-01-12T05:01:56.059Z,64.10
2018-01-12T05:02:55.919Z,66.70
2018-01-12T05:03:55.960Z,67.40
2018-01-12T05:04:55.864Z,62.90
2018-01-12T05:05:55.877Z,67.40
2018-01-12T05:06:55.807Z,67.50
2018-01-12T05:07:55.885Z,68.80
2018-01-12T05:08:55.753Z,70.10
2018-01-12T05:09:55.801Z,67.50
2018-01-12T05:10:55.699Z,66.70
2018-01-12T05:11:55.813Z,66.40
2018-01-12T05:12:55.641Z,64.90
2018-01-12T05:13:55.726Z,67.60
2018-01-12T05:14:55.599Z,64.60
2018-01-12T05:15:55.637Z,64.60
2018-01-12T05:16:55.530Z,71.00
2018-01-12T05:17:55.650Z,65.50
2018-01-12T05:18:55.477Z,65.00
2018-01-12T05:19:55.561Z,66.10
2018-01-12T05:20:55.418Z,71.70
2018-01-12T05:21:55.516Z,66.80
2018-01-12T05:22:55.364Z,61.30
2018-01-12T05:23:55.489Z,66.10
2018-01-12T05:24:55.307Z,65.50
2018-01-12T05:25:55.400Z,68.50
2018-01-12T05:26:55.252Z,74.00
2018-01-12T05:27:55.309Z,78.70
2018-01-12T05:28:55.194Z,74.40
2018-01-12T05:29:55.325Z,70.50
2018-01-12T05:30:55.144Z,74.20
2018-01-12T05:31:55.233Z,71.40
2018-01-12T05:32:55.087Z,76.60
2018-01-12T05:33:55.144Z,70.80
2018-01-12T05:34:55.054Z,66.10
2018-01-12T05:35:55.163Z,70.70
2018-01-12T05:36:54.974Z,66.70
2018-01-12T05:37:55.071Z,71.20
2018-01-12T05:38:54.920Z,71.20
2018-01-12T05:39:54.981Z,69.30
2018-01-12T05:40:54.863Z,70.50
2018-01-12T05:41:54.995Z,68.10
2018-01-12T05:42:54.811Z,64.40
2018-01-12T05:43:54.906Z,67.40
2018-01-12T05:44:54.752Z,64.30
2018-01-12T05:45:54.819Z,65.20
2018-01-12T05:46:54.696Z,61.10
2018-01-12T05:47:54.837Z,63.60
2018-01-12T05:48:54.640Z,61.80
2018-01-12T05:49:54.744Z,63.20
2018-01-12T05:50:54.584Z,64.10
2018-01-12T05:51:54.656Z,59.70
2018-01-12T05:52:54.529Z,66.20
2018-01-12T05:53:54.670Z,63.50
2018-01-12T05:54:54.472Z,61.10
2018-01-12T05:55:54.582Z,66.50
2018-01-12T05:56:54.420Z,67.50
2018-01-12T05:57:54.496Z,65.80
2018-01-12T05:58:54.360Z,67.80
2018-01-12T05:59:54.508Z,66.10
2018-01-12T06:00:54.306Z,67.60
2018-01-12T06:01:54.417Z,65.20
2018-01-12T06:02:54.256Z,68.70
2018-01-12T06:03:54.329Z,67.80
2018-01-12T06:04:54.194Z,65.80
2018-01-12T06:05:54.342Z,62.20
2018-01-12T06:06:54.141Z,61.20
2018-01-12T06:07:54.254Z,62.80
2018-01-12T06:08:54.082Z,62.90
2018-01-12T06:09:54.165Z,63.80
2018-01-12T06:10:54.030Z,60.30
2018-01-12T06:11:54.179Z,60.10
2018-01-12T06:12:53.970Z,60.20
2018-01-12T06:13:54.091Z,60.90
2018-01-12T06:14:53.916Z,63.20
2018-01-12T06:15:54.001Z,59.10
2018-01-12T06:16:53.861Z,62.00
2018-01-12T06:17:54.018Z,65.10
2018-01-12T06:18:53.808Z,68.50
2018-01-12T06:19:53.932Z,66.20
2018-01-12T06:20:53.751Z,60.50
2018-01-12T06:21:53.844Z,65.50
2018-01-12T06:22:53.694Z,66.70
2018-01-12T06:23:53.853Z,61.20
2018-01-12T06:24:53.638Z,67.90
2018-01-12T06:25:53.763Z,64.80
2018-01-12T06:26:53.583Z,67.20
2018-01-12T06:27:53.675Z,63.90
2018-01-12T06:28:53.527Z,64.50
2018-01-12T06:29:53.697Z,63.70
2018-01-12T06:30:53.479Z,60.10
2018-01-12T06:31:53.606Z,62.40
2018-01-12T06:32:53.418Z,66.30
2018-01-12T06:33:53.515Z,62.30
2018-01-12T06:34:53.363Z,62.90
2018-01-12T06:35:53.528Z,63.30
2018-01-12T06:36:53.304Z,64.80
2018-01-12T06:37:53.439Z,61.70
2018-01-12T06:38:53.249Z,66.90
2018-01-12T06:39:53.357Z,66.10
2018-01-12T06:40:53.196Z,64.90
2018-01-12T06:41:53.365Z,66.70
2018-01-12T06:42:53.136Z,69.70
2018-01-12T06:43:53.275Z,68.10
2018-01-12T06:44:53.081Z,69.20
2018-01-12T06:45:53.189Z,70.10
2018-01-12T06:46:53.025Z,71.80
2018-01-12T06:47:53.200Z,72.10
2018-01-12T06:48:52.969Z,77.60
2018-01-12T06:49:53.112Z,72.00
2018-01-12T06:50:52.917Z,79.70
2018-01-12T06:51:53.023Z,75.40
2018-01-12T06:52:52.858Z,81.90
2018-01-12T06:53:53.037Z,82.70
2018-01-12T06:54:52.804Z,108.30
2018-01-12T06:55:52.951Z,81.90
2018-01-12T06:56:52.750Z,81.10
2018-01-12T06:57:52.859Z,84.00
2018-01-12T06:58:52.693Z,80.90
2018-01-12T06:59:52.873Z,90.00
2018-01-12T07:00:52.636Z,86.40
2018-01-12T07:01:52.785Z,82.40
2018-01-12T07:02:52.582Z,86.50
2018-01-12T07:03:52.696Z,88.10
2018-01-12T07:04:52.528Z,88.30
2018-01-12T07:05:52.712Z,88.40
2018-01-12T07:06:52.470Z,89.70
2018-01-12T07:07:52.521Z,84.20
2018-01-12T07:08:52.417Z,79.50
2018-01-12T07:09:52.437Z,79.80
2018-01-12T07:10:52.359Z,82.00
2018-01-12T07:11:52.446Z,77.60
2018-01-12T07:12:52.304Z,75.40
2018-01-12T07:13:52.355Z,77.80
2018-01-12T07:14:52.249Z,73.10
2018-01-12T07:15:52.268Z,73.90
2018-01-12T07:16:52.196Z,71.80
2018-01-12T07:17:52.281Z,72.30
2018-01-12T07:18:52.139Z,79.70
2018-01-12T07:19:52.196Z,76.20
2018-01-12T07:20:52.079Z,76.80
2018-01-12T07:21:52.106Z,81.30
2018-01-12T07:22:52.028Z,79.80
2018-01-12T07:23:52.119Z,76.30
2018-01-12T07:24:51.972Z,71.70
2018-01-12T07:25:52.030Z,76.00
2018-01-12T07:26:51.914Z,68.40
2018-01-12T07:27:51.941Z,72.40
2018-01-12T07:28:51.859Z,71.30
2018-01-12T07:29:51.956Z,72.20
2018-01-12T07:30:51.804Z,71.20
2018-01-12T07:31:51.866Z,71.70
2018-01-12T07:32:51.748Z,69.50
2018-01-12T07:33:51.780Z,68.40
2018-01-12T07:34:51.694Z,67.90
2018-01-12T07:35:51.792Z,74.60
2018-01-12T07:36:51.636Z,76.30
2018-01-12T07:37:51.701Z,69.30
2018-01-12T07:38:51.584Z,65.00
2018-01-12T07:39:51.616Z,68.50
2018-01-12T07:40:51.528Z,67.80
2018-01-12T07:41:51.632Z,66.00
2018-01-12T07:42:51.470Z,67.50
2018-01-12T07:43:51.565Z,66.10
2018-01-12T07:44:51.413Z,65.00
2018-01-12T07:45:51.452Z,65.80
2018-01-12T07:46:51.361Z,65.40
2018-01-12T07:47:51.469Z,68.90
2018-01-12T07:48:51.305Z,70.60
2018-01-12T07:49:51.377Z,66.30
2018-01-12T07:50:51.249Z,69.90
2018-01-12T07:51:51.288Z,72.10
2018-01-12T07:52:51.189Z,67.50
2018-01-12T07:53:51.303Z,71.10
2018-01-12T07:54:51.139Z,70.70
2018-01-12T07:55:51.218Z,71.70
2018-01-12T07:56:51.081Z,70.30
2018-01-12T07:57:51.125Z,74.30
2018-01-12T07:58:51.027Z,72.90
2018-01-12T07:59:51.138Z,72.60
2018-01-12T08:00:51.008Z,75.90
2018-01-12T08:01:51.050Z,74.00
2018-01-12T08:02:50.915Z,79.70
2018-01-12T08:03:50.961Z,73.90
2018-01-12T08:04:50.858Z,70.10
2018-01-12T08:05:50.975Z,76.60
2018-01-12T08:06:50.805Z,71.90
2018-01-12T08:07:50.888Z,75.40
2018-01-12T08:08:50.750Z,74.10
2018-01-12T08:09:50.799Z,70.60
2018-01-12T08:10:50.693Z,77.10
2018-01-12T08:11:50.812Z,74.80
2018-01-12T08:12:50.637Z,80.40
2018-01-12T08:13:50.724Z,76.80
2018-01-12T08:14:50.583Z,77.30
2018-01-12T08:15:50.635Z,73.80
2018-01-12T08:16:50.534Z,79.00
2018-01-12T08:17:50.649Z,77.60
2018-01-12T08:18:50.472Z,73.40
2018-01-12T08:19:50.561Z,76.70
2018-01-12T08:20:50.417Z,77.30
2018-01-12T08:21:50.470Z,78.90
2018-01-12T08:22:50.367Z,77.80
2018-01-12T08:23:50.486Z,75.30
2018-01-12T08:24:50.307Z,72.20
2018-01-12T08:25:50.397Z,74.50
2018-01-12T08:26:50.250Z,76.40
2018-01-12T08:27:50.308Z,77.10
2018-01-12T08:28:50.195Z,85.70
2018-01-12T08:29:50.322Z,79.60
2018-01-12T08:30:50.141Z,81.20
2018-01-12T08:31:50.235Z,81.20
2018-01-12T08:32:50.085Z,74.70
2018-01-12T08:33:50.194Z,83.90
2018-01-12T08:34:50.030Z,86.10
2018-01-12T08:35:50.159Z,85.70
2018-01-12T08:36:49.975Z,85.60
2018-01-12T08:37:49.945Z,81.50
2018-01-12T08:38:49.919Z,79.40
2018-01-12T08:39:49.982Z,75.90
2018-01-12T08:40:49.862Z,78.80
2018-01-12T08:41:49.893Z,71.10
2018-01-12T08:42:49.810Z,73.60
2018-01-12T08:43:49.782Z,72.60
2018-01-12T08:44:49.812Z,70.80
2018-01-12T08:45:49.727Z,77.90
2018-01-12T08:46:49.731Z,81.30
2018-01-12T08:47:49.670Z,74.60
2018-01-12T08:48:49.739Z,79.30
2018-01-12T08:49:49.617Z,78.80
2018-01-12T08:50:49.648Z,76.50
2018-01-12T08:51:49.563Z,73.40
2018-01-12T08:52:49.559Z,80.10
2018-01-12T08:53:49.503Z,75.90
2018-01-12T08:54:49.575Z,75.70
2018-01-12T08:55:49.448Z,73.20
2018-01-12T08:56:49.485Z,79.50
2018-01-12T08:57:49.393Z,73.90
2018-01-12T08:58:49.396Z,74.60
2018-01-12T08:59:49.337Z,71.60
2018-01-12T09:00:49.412Z,77.80
2018-01-12T09:01:49.287Z,81.50
2018-01-12T09:02:49.320Z,80.70
2018-01-12T09:03:49.229Z,73.70
2018-01-12T09:04:49.236Z,79.60
2018-01-12T09:05:49.175Z,83.60
2018-01-12T09:06:49.254Z,75.80
2018-01-12T09:07:49.117Z,85.60
2018-01-12T09:08:49.162Z,78.30
2018-01-12T09:09:49.061Z,80.80
2018-01-12T09:10:49.074Z,80.60
2018-01-12T09:11:49.008Z,83.30
2018-01-12T09:12:49.088Z,81.10
2018-01-12T09:13:48.955Z,83.40
2018-01-12T09:14:49.001Z,78.30
2018-01-12T09:15:48.900Z,79.80
2018-01-12T09:16:48.912Z,76.10
2018-01-12T09:17:48.845Z,77.40
2018-01-12T09:18:48.926Z,77.40
2018-01-12T09:19:48.790Z,74.10
2018-01-12T09:20:48.836Z,75.10
2018-01-12T09:21:48.736Z,71.30
2018-01-12T09:22:48.755Z,76.20
2018-01-12T09:23:48.681Z,76.50
2018-01-12T09:24:48.761Z,80.00
2018-01-12T09:25:48.625Z,77.60
2018-01-12T09:26:48.676Z,79.20
2018-01-12T09:27:48.574Z,77.60
2018-01-12T09:28:48.586Z,83.50
2018-01-12T09:29:48.514Z,82.10
2018-01-12T09:30:48.597Z,78.20
2018-01-12T09:31:48.459Z,76.90
2018-01-12T09:32:48.509Z,76.80
2018-01-12T09:33:48.404Z,80.20
2018-01-12T09:34:48.421Z,75.80
2018-01-12T09:35:48.350Z,72.00
2018-01-12T09:36:48.334Z,79.10
2018-01-12T09:37:48.298Z,75.90
2018-01-12T09:38:48.346Z,86.40
2018-01-12T09:39:48.243Z,77.20
2018-01-12T09:40:48.253Z,76.50
2018-01-12T09:41:48.186Z,78.70
2018-01-12T09:42:48.171Z,75.90
2018-01-12T09:43:48.133Z,78.20
2018-01-12T09:44:48.183Z,71.60
2018-01-12T09:45:48.075Z,74.70
2018-01-12T09:46:48.093Z,72.60
2018-01-12T09:47:48.019Z,67.10
2018-01-12T09:48:48.009Z,74.20
2018-01-12T09:49:47.964Z,71.00
2018-01-12T09:50:48.020Z,72.00
2018-01-12T09:51:47.908Z,71.30
2018-01-12T09:52:47.931Z,73.40
2018-01-12T09:53:47.856Z,71.00
2018-01-12T09:54:47.847Z,76.40
2018-01-12T09:55:47.802Z,69.40
2018-01-12T09:56:47.860Z,65.50
2018-01-12T09:57:47.749Z,67.30
2018-01-12T09:58:47.769Z,67.10
2018-01-12T09:59:47.693Z,71.00
2018-01-12T10:00:47.686Z,66.30
2018-01-12T10:01:47.634Z,65.20
2018-01-12T10:02:47.697Z,71.40
2018-01-12T10:03:47.582Z,65.60
2018-01-12T10:04:47.610Z,70.30
2018-01-12T10:05:47.527Z,69.00
2018-01-12T10:06:47.518Z,70.20
2018-01-12T10:07:47.508Z,65.90
2018-01-12T10:08:47.532Z,67.40
2018-01-12T10:09:47.426Z,67.20
2018-01-12T10:10:47.442Z,70.30
2018-01-12T10:11:47.365Z,69.10
2018-01-12T10:12:47.353Z,69.20
2018-01-12T10:13:47.310Z,71.90
2018-01-12T10:14:47.368Z,67.10
2018-01-12T10:15:47.255Z,68.20
2018-01-12T10:16:47.278Z,69.80
2018-01-12T10:17:47.200Z,72.00
2018-01-12T10:18:47.189Z,72.00
2018-01-12T10:19:47.145Z,74.60
2018-01-12T10:20:47.205Z,71.70
2018-01-12T10:21:47.091Z,69.50
2018-01-12T10:22:47.120Z,67.10
2018-01-12T10:23:47.036Z,71.00
2018-01-12T10:24:47.028Z,69.10
2018-01-12T10:25:46.987Z,70.50
2018-01-12T10:26:47.041Z,75.50
2018-01-12T10:27:46.928Z,73.10
2018-01-12T10:28:46.951Z,68.20
2018-01-12T10:29:46.873Z,69.30
2018-01-12T10:30:46.864Z,72.70
2018-01-12T10:31:46.825Z,80.00
2018-01-12T10:32:46.877Z,90.20
2018-01-12T10:33:46.763Z,93.80
2018-01-12T10:34:46.788Z,87.80
2018-01-12T10:35:46.709Z,105.00
2018-01-12T10:36:46.700Z,85.90
2018-01-12T10:37:46.657Z,87.10
2018-01-12T10:38:46.713Z,86.50
2018-01-12T10:39:46.602Z,79.30
2018-01-12T10:40:46.624Z,79.40
2018-01-12T10:41:46.551Z,74.30
2018-01-12T10:42:46.537Z,75.20
2018-01-12T10:43:46.493Z,75.10
2018-01-12T10:44:46.551Z,77.20
2018-01-12T10:45:46.437Z,74.00
2018-01-12T10:46:46.460Z,83.90
2018-01-12T10:47:46.386Z,84.20
2018-01-12T10:48:46.373Z,77.70
2018-01-12T10:49:46.328Z,78.00
2018-01-12T10:50:46.393Z,75.60
2018-01-12T10:51:46.276Z,73.80
2018-01-12T10:52:46.301Z,75.30
2018-01-12T10:53:46.218Z,78.20
2018-01-12T10:54:46.210Z,82.80
2018-01-12T10:55:46.173Z,82.70
2018-01-12T10:56:46.225Z,77.60
2018-01-12T10:57:46.110Z,76.00
2018-01-12T10:58:46.137Z,74.60
2018-01-12T10:59:46.058Z,77.40
2018-01-12T11:00:46.049Z,72.20
2018-01-12T11:01:46.003Z,75.80
2018-01-12T11:02:46.062Z,71.80
2018-01-12T11:03:45.949Z,71.40
2018-01-12T11:04:45.973Z,68.90
2018-01-12T11:05:45.896Z,78.10
2018-01-12T11:06:45.904Z,77.40
2018-01-12T11:07:45.839Z,78.10
2018-01-12T11:08:45.898Z,69.60
2018-01-12T11:09:45.788Z,67.50
2018-01-12T11:10:45.809Z,65.20
2018-01-12T11:11:45.735Z,64.70
2018-01-12T11:12:45.704Z,65.40
2018-01-12T11:13:45.676Z,64.80
2018-01-12T11:14:45.837Z,65.30
2018-01-12T11:15:45.624Z,67.70
2018-01-12T11:16:45.750Z,72.90
2018-01-12T11:17:45.569Z,71.50
2018-01-12T11:18:45.558Z,70.50
2018-01-12T11:19:45.516Z,73.90
2018-01-12T11:20:45.573Z,75.40
2018-01-12T11:21:45.467Z,75.70
2018-01-12T11:22:45.484Z,77.90
2018-01-12T11:23:45.408Z,78.50
2018-01-12T11:24:45.394Z,76.50
2018-01-12T11:25:45.351Z,77.70
2018-01-12T11:26:45.409Z,81.90
2018-01-12T11:27:45.299Z,80.00
2018-01-12T11:28:45.319Z,80.40
2018-01-12T11:29:45.244Z,78.40
2018-01-12T11:30:45.233Z,81.20
2018-01-12T11:31:45.189Z,80.00
2018-01-12T11:32:45.246Z,81.80
2018-01-12T11:33:45.133Z,80.20
2018-01-12T11:34:45.156Z,78.60
2018-01-12T11:35:45.081Z,77.20
2018-01-12T11:36:45.069Z,76.70
2018-01-12T11:37:45.029Z,81.80
2018-01-12T11:38:45.082Z,79.50
2018-01-12T11:39:44.977Z,79.70
2018-01-12T11:40:44.994Z,78.20
2018-01-12T11:41:44.918Z,72.20
2018-01-12T11:42:45.008Z,74.70
2018-01-12T11:43:44.866Z,75.60
2018-01-12T11:44:44.920Z,75.90
2018-01-12T11:45:44.813Z,73.30
2018-01-12T11:46:44.830Z,75.50
2018-01-12T11:47:44.758Z,79.50
2018-01-12T11:48:44.844Z,74.20
2018-01-12T11:49:44.704Z,74.60
2018-01-12T11:50:44.756Z,72.70
2018-01-12T11:51:44.648Z,76.80
2018-01-12T11:52:44.667Z,76.70
2018-01-12T11:53:44.596Z,73.90
2018-01-12T11:54:44.680Z,73.50
2018-01-12T11:55:44.544Z,79.90
2018-01-12T11:56:44.593Z,74.40
2018-01-12T11:57:44.487Z,81.40
2018-01-12T11:58:44.504Z,79.80
2018-01-12T11:59:44.436Z,79.10
2018-01-12T12:00:44.517Z,88.10
2018-01-12T12:01:44.380Z,86.70
2018-01-12T12:02:44.428Z,88.90
2018-01-12T12:03:44.328Z,83.50
2018-01-12T12:04:44.340Z,89.30
2018-01-12T12:05:44.272Z,86.10
2018-01-12T12:06:44.354Z,91.70
2018-01-12T12:07:44.219Z,85.70
2018-01-12T12:08:44.264Z,86.00
2018-01-12T12:09:44.167Z,88.30
2018-01-12T12:10:44.176Z,87.10
2018-01-12T12:11:44.111Z,91.60
2018-01-12T12:12:44.191Z,87.50
2018-01-12T12:13:44.056Z,93.30
2018-01-12T12:14:44.102Z,92.50
2018-01-12T12:15:44.005Z,91.80
2018-01-12T12:16:44.015Z,90.30
2018-01-12T12:17:43.953Z,87.40
2018-01-12T12:18:44.028Z,92.80
2018-01-12T12:19:43.896Z,89.30
2018-01-12T12:20:43.941Z,89.50
2018-01-12T12:21:43.841Z,89.40
2018-01-12T12:22:43.818Z,97.40
2018-01-12T12:23:43.858Z,102.90
2018-01-12T12:24:43.759Z,96.40
2018-01-12T12:25:43.772Z,88.60
2018-01-12T12:26:43.706Z,87.20
2018-01-12T12:27:43.785Z,94.40
2018-01-12T12:28:43.653Z,95.90
2018-01-12T12:29:43.697Z,96.70
2018-01-12T12:30:43.603Z,91.10
2018-01-12T12:31:43.608Z,91.30
2018-01-12T12:32:43.545Z,83.80
2018-01-12T12:33:43.622Z,88.70
2018-01-12T12:34:43.490Z,85.90
2018-01-12T12:35:43.533Z,99.20
2018-01-12T12:36:43.437Z,97.80
2018-01-12T12:37:43.444Z,92.40
2018-01-12T12:38:43.398Z,88.50
2018-01-12T12:39:43.456Z,93.80
2018-01-12T12:40:43.328Z,87.80
2018-01-12T12:41:43.369Z,87.50
2018-01-12T12:42:43.279Z,90.30
2018-01-12T12:43:43.278Z,85.60
2018-01-12T12:44:43.222Z,84.10
2018-01-12T12:45:43.293Z,84.30
2018-01-12T12:46:43.168Z,81.80
2018-01-12T12:47:43.204Z,85.40
2018-01-12T12:48:43.116Z,82.30
2018-01-12T12:49:43.116Z,86.80
2018-01-12T12:50:43.061Z,87.10
2018-01-12T12:51:43.147Z,86.70